createdAt,value
2023-02-11T00:02:13.236Z,25.63
2023-02-11T00:07:14.896Z,24.65
2023-02-11T00:12:19.486Z,27.57
2023-02-11T00:17:21.510Z,26.95
2023-02-11T00:22:23.565Z,29.83
2023-02-11T00:27:25.231Z,28.13
2023-02-11T00:32:26.905Z,31.20
2023-02-11T00:37:29.157Z,30.23
2023-02-11T00:47:32.620Z,28.10
2023-02-11T00:52:34.931Z,29.63
2023-02-11T00:57:37.616Z,29.33
2023-02-11T01:02:39.663Z,28.88
2023-02-11T01:07:41.324Z,27.85
2023-02-11T01:12:43.054Z,27.37
2023-02-11T01:17:45.381Z,29.00
2023-02-11T01:22:47.139Z,30.23
2023-02-11T01:27:50.491Z,29.67
2023-02-11T01:32:52.190Z,30.40
2023-02-11T01:37:53.930Z,28.23
2023-02-11T01:42:55.544Z,28.53
2023-02-11T01:47:57.247Z,29.67
2023-02-11T01:53:18.931Z,30.02
2023-02-11T01:58:21.705Z,29.52
2023-02-11T02:03:24.724Z,29.48
2023-02-11T02:08:29.531Z,28.83
2023-02-11T02:13:33.772Z,28.10
2023-02-11T02:18:59.858Z,27.02
2023-02-11T02:24:26.369Z,28.05
2023-02-11T02:29:46.704Z,28.90
2023-02-11T02:35:04.167Z,29.42
2023-02-11T02:40:12.897Z,29.27
2023-02-11T02:45:14.852Z,29.10
2023-02-11T02:50:19.649Z,28.60
2023-02-11T02:55:54.795Z,29.88
2023-02-11T03:01:21.270Z,29.30
2023-02-11T03:06:45.910Z,28.90
2023-02-11T03:11:47.653Z,28.02
2023-02-11T03:16:51.776Z,29.58
2023-02-11T03:21:55.225Z,30.88
2023-02-11T03:27:01.528Z,30.65
2023-02-11T03:32:31.100Z,27.67
2023-02-11T03:37:40.127Z,31.00
2023-02-11T03:42:46.418Z,28.20
2023-02-11T03:47:56.755Z,30.10
2023-02-11T03:53:00.546Z,31.13
2023-02-11T03:58:02.225Z,30.80
2023-02-11T04:03:04.622Z,32.28
2023-02-11T04:13:08.184Z,31.10
2023-02-11T04:18:09.923Z,30.75
2023-02-11T04:23:11.571Z,31.55
2023-02-11T04:28:13.268Z,31.03
2023-02-11T04:33:14.923Z,31.83
2023-02-11T04:38:17.047Z,33.57
2023-02-11T04:43:18.825Z,31.30
2023-02-11T04:48:20.604Z,33.08
2023-02-11T04:53:22.231Z,33.20
2023-02-11T04:58:24.374Z,33.90
2023-02-11T05:03:26.104Z,35.85
2023-02-11T05:08:28.175Z,35.23
2023-02-11T05:13:30.286Z,34.25
2023-02-11T05:18:31.925Z,35.83
2023-02-11T05:23:34.288Z,34.92
2023-02-11T05:28:37.750Z,36.28
2023-02-11T05:33:39.446Z,34.75
2023-02-11T05:38:42.550Z,34.67
2023-02-11T05:43:44.185Z,37.38
2023-02-11T05:48:45.834Z,36.67
2023-02-11T05:53:47.507Z,35.33
2023-02-11T05:58:49.195Z,33.37
2023-02-11T06:03:51.356Z,35.20
2023-02-11T06:08:53.124Z,34.38
2023-02-11T06:13:54.905Z,34.67
2023-02-11T06:18:56.555Z,34.80
2023-02-11T06:23:58.331Z,34.30
2023-02-11T06:29:01.301Z,34.97
2023-02-11T06:34:03.263Z,33.88
2023-02-11T06:39:05.143Z,36.10
2023-02-11T06:44:07.287Z,35.85
2023-02-11T06:49:09.076Z,38.83
2023-02-11T06:54:12.104Z,33.77
2023-02-11T06:59:18.563Z,38.08
2023-02-11T07:04:20.321Z,35.75
2023-02-11T07:09:21.972Z,34.50
2023-02-11T07:14:23.799Z,35.28
2023-02-11T07:19:25.487Z,34.53
2023-02-11T07:24:27.709Z,33.55
2023-02-11T07:29:29.399Z,33.87
2023-02-11T07:34:31.358Z,37.83
2023-02-11T07:39:33.127Z,38.73
2023-02-11T07:44:35.097Z,27.63
2023-02-11T07:49:36.795Z,29.05
2023-02-11T07:54:38.427Z,33.23
2023-02-11T07:59:40.131Z,32.88
2023-02-11T08:04:41.807Z,33.13
2023-02-11T08:09:43.551Z,31.73
2023-02-11T08:14:45.416Z,30.77
2023-02-11T08:19:47.130Z,30.27
2023-02-11T08:24:52.262Z,29.87
2023-02-11T08:29:54.870Z,30.45
2023-02-11T08:34:56.956Z,31.27
2023-02-11T08:39:58.675Z,34.53
2023-02-11T08:45:00.383Z,34.67
2023-02-11T08:50:02.042Z,32.05
2023-02-11T08:55:04.349Z,30.63
2023-02-11T09:00:06.822Z,31.60
2023-02-11T09:05:09.118Z,29.23
2023-02-11T09:10:11.798Z,28.15
2023-02-11T09:15:13.607Z,26.43
2023-02-11T09:20:15.370Z,26.13
2023-02-11T09:25:17.002Z,26.20
2023-02-11T09:30:18.759Z,25.42
2023-02-11T09:35:20.424Z,24.13
2023-02-11T09:40:23.229Z,24.20
2023-02-11T09:45:28.464Z,21.88
2023-02-11T09:50:34.297Z,21.52
2023-02-11T09:55:42.871Z,22.30
2023-02-11T10:00:48.938Z,21.52
2023-02-11T10:06:10.716Z,20.15
2023-02-11T10:11:31.529Z,19.92
2023-02-11T10:16:48.279Z,20.40
2023-02-11T10:22:23.103Z,19.98
2023-02-11T10:27:30.656Z,19.42
2023-02-11T10:32:39.224Z,20.08
2023-02-11T10:37:43.565Z,19.38
2023-02-11T10:42:51.235Z,20.02
2023-02-11T10:47:55.212Z,18.98
2023-02-11T10:53:12.317Z,19.50
2023-02-11T10:58:24.060Z,19.95
2023-02-11T11:03:33.976Z,20.52
2023-02-11T11:08:47.833Z,20.10
2023-02-11T11:13:52.766Z,17.42
2023-02-11T11:19:22.217Z,16.95
2023-02-11T11:24:37.461Z,18.10
2023-02-11T11:29:51.221Z,18.45
2023-02-11T11:34:55.788Z,18.65
2023-02-11T11:40:00.523Z,18.95
2023-02-11T11:45:24.750Z,17.48
2023-02-11T11:50:35.594Z,16.52
2023-02-11T11:55:59.852Z,17.98
2023-02-11T12:01:04.417Z,14.40
2023-02-11T12:06:24.439Z,14.07
2023-02-11T12:11:52.803Z,13.52
2023-02-11T12:17:22.397Z,14.07
2023-02-11T12:22:51.514Z,14.32
2023-02-11T12:28:16.797Z,12.93
2023-02-11T12:33:57.670Z,12.95
2023-02-11T12:39:06.501Z,15.27
2023-02-11T12:44:23.763Z,14.20
2023-02-11T12:49:38.630Z,14.23
2023-02-11T12:54:47.772Z,14.43
2023-02-11T12:59:59.191Z,14.52
2023-02-11T13:05:15.872Z,13.88
2023-02-11T13:10:34.603Z,11.98
2023-02-11T13:15:37.060Z,14.52
2023-02-11T13:20:50.886Z,14.20
2023-02-11T13:26:10.487Z,13.98
2023-02-11T13:31:13.563Z,14.27
2023-02-11T13:36:27.596Z,14.73
2023-02-11T13:41:41.818Z,15.70
2023-02-11T13:46:53.077Z,15.95
2023-02-11T13:51:55.755Z,15.38
2023-02-11T13:57:19.635Z,15.85
2023-02-11T14:02:55.151Z,16.10
2023-02-11T14:08:30.947Z,16.15
2023-02-11T14:13:34.565Z,16.33
2023-02-11T14:18:39.045Z,16.75
2023-02-11T14:23:41.659Z,16.80
2023-02-11T14:28:46.765Z,15.75
2023-02-11T14:34:12.449Z,16.00
2023-02-11T14:39:47.046Z,16.58
2023-02-11T14:44:52.223Z,16.02
2023-02-11T14:49:54.278Z,15.20
2023-02-11T14:55:14.820Z,15.67
2023-02-11T15:00:22.104Z,16.08
2023-02-11T15:05:31.382Z,16.65
2023-02-11T15:10:37.884Z,16.35
2023-02-11T15:15:40.681Z,15.55
2023-02-11T15:25:51.079Z,16.23
2023-02-11T15:31:14.100Z,15.02
2023-02-11T15:41:38.370Z,15.38
2023-02-11T15:46:40.896Z,17.23
2023-02-11T15:51:45.881Z,17.35
2023-02-11T15:56:52.762Z,16.25
2023-02-11T16:01:55.423Z,16.02
2023-02-11T16:06:57.478Z,20.15
2023-02-11T16:12:07.485Z,19.33
2023-02-11T16:17:12.625Z,17.08
2023-02-11T16:22:18.859Z,18.08
2023-02-11T16:27:25.701Z,18.33
2023-02-11T16:32:29.664Z,16.98
2023-02-11T16:37:32.261Z,17.75
2023-02-11T16:42:34.123Z,17.75
2023-02-11T16:47:40.819Z,16.67
2023-02-11T16:52:43.140Z,16.02
2023-02-11T16:57:44.848Z,17.23
2023-02-11T17:02:46.613Z,16.83
2023-02-11T17:07:49.145Z,17.27
2023-02-11T17:12:51.371Z,19.45
2023-02-11T17:17:53.122Z,19.25
2023-02-11T17:22:54.870Z,18.95
2023-02-11T17:27:56.722Z,18.95
2023-02-11T17:32:58.478Z,19.17
2023-02-11T17:38:01.367Z,19.70
2023-02-11T17:43:03.312Z,20.17
2023-02-11T17:48:05.096Z,21.00
2023-02-11T17:53:06.739Z,19.52
2023-02-11T17:58:08.739Z,19.88
2023-02-11T18:03:10.358Z,18.38
2023-02-11T18:08:12.113Z,19.60
2023-02-11T18:13:14.006Z,19.25
2023-02-11T18:18:16.308Z,15.27
2023-02-11T18:23:18.031Z,12.27
2023-02-11T18:28:19.842Z,14.15
2023-02-11T18:33:21.559Z,11.77
2023-02-11T18:38:24.191Z,11.60
2023-02-11T18:43:26.000Z,14.75
2023-02-11T18:48:28.221Z,15.07
2023-02-11T18:53:30.176Z,11.85
2023-02-11T18:58:32.188Z,16.52
2023-02-11T19:03:34.010Z,23.40
2023-02-11T19:08:35.868Z,24.25
2023-02-11T19:13:38.288Z,24.27
2023-02-11T19:18:40.182Z,23.25
2023-02-11T19:23:41.859Z,16.80
2023-02-11T19:28:44.677Z,17.50
2023-02-11T19:33:47.655Z,23.98
2023-02-11T19:38:49.765Z,16.27
2023-02-11T19:43:52.919Z,15.10
2023-02-11T19:48:54.884Z,12.73
2023-02-11T19:53:58.001Z,11.33
2023-02-11T19:59:03.505Z,12.82
2023-02-11T20:04:06.769Z,15.10
2023-02-11T20:09:14.100Z,16.17
2023-02-11T20:14:16.045Z,19.35
2023-02-11T20:19:21.247Z,19.65
2023-02-11T20:24:25.606Z,14.35
2023-02-11T20:29:29.570Z,12.27
2023-02-11T20:34:31.362Z,12.50
2023-02-11T20:39:33.328Z,15.32
2023-02-11T20:44:36.677Z,14.50
2023-02-11T20:49:38.390Z,15.32
2023-02-11T20:54:40.268Z,14.65
2023-02-11T20:59:42.657Z,17.33
2023-02-11T21:04:44.350Z,19.77
2023-02-11T21:09:46.080Z,21.60
2023-02-11T21:14:47.716Z,23.90
2023-02-11T21:19:49.561Z,16.40
2023-02-11T21:24:51.330Z,15.05
2023-02-11T21:29:54.798Z,20.67
2023-02-11T21:34:56.669Z,24.15
2023-02-11T21:39:58.384Z,25.92
2023-02-11T21:45:00.267Z,22.83
2023-02-11T21:50:01.858Z,18.48
2023-02-11T21:55:03.756Z,18.00
2023-02-11T22:00:07.686Z,17.87
2023-02-11T22:05:10.546Z,18.27
2023-02-11T22:10:12.868Z,21.00
2023-02-11T22:15:14.944Z,22.52
2023-02-11T22:20:17.494Z,19.60
2023-02-11T22:25:19.336Z,17.08
2023-02-11T22:30:21.046Z,19.10
2023-02-11T22:35:22.780Z,20.17
2023-02-11T22:40:24.989Z,17.63
2023-02-11T22:45:26.936Z,15.68
2023-02-11T22:50:28.697Z,17.88
2023-02-11T22:55:30.615Z,19.03
2023-02-11T23:00:37.962Z,16.73
2023-02-11T23:05:42.867Z,17.98
2023-02-11T23:10:44.610Z,16.30
2023-02-11T23:15:47.151Z,16.65
2023-02-11T23:20:48.900Z,15.95
2023-02-11T23:25:50.588Z,19.48
2023-02-11T23:30:52.403Z,16.52
2023-02-11T23:35:54.369Z,20.00
2023-02-11T23:40:56.208Z,20.85
2023-02-11T23:45:58.354Z,18.80
2023-02-11T23:51:00.116Z,17.85
2023-02-11T23:56:07.413Z,18.98
